Time;durP1;ratioP1;P1;durP2;ratioP2;P2;SDS_P1;SDS_P2;PMS_P1;PMS_P2;Temp;Humidity;BMP_temperature;BMP_pressure;BME280_temperature;BME280_humidity;BME280_pressure;Samples;Min_cycle;Max_cycle;Signal;HPM_P1;HPM_P2
2022/04/17 00:02:01;;;;;;;20.70;11.52;;;;;;;6.43;51.07;102902.41;5156660;27;20018;-56
2022/04/17 00:04:27;;;;;;;21.20;11.55;;;;;;;6.39;50.31;102903.91;5156723;27;20034;-55
2022/04/17 00:06:52;;;;;;;21.35;11.93;;;;;;;6.35;50.69;102909.03;5156504;27;20022;-55
2022/04/17 00:09:18;;;;;;;20.50;11.70;;;;;;;6.33;50.58;102902.91;5156582;27;20386;-55
2022/04/17 00:11:43;;;;;;;21.27;11.68;;;;;;;6.28;50.88;102897.25;5156780;27;20035;-55
2022/04/17 00:14:12;;;;;;;21.50;12.00;;;;;;;6.27;50.52;102900.25;5156562;27;20355;-56
2022/04/17 00:16:40;;;;;;;22.25;12.73;;;;;;;6.22;50.66;102895.44;5156058;27;20022;-56
2022/04/17 00:19:06;;;;;;;23.02;13.20;;;;;;;6.20;50.84;102901.13;5156529;27;20034;-55
2022/04/17 00:21:32;;;;;;;21.42;12.25;;;;;;;6.17;50.89;102898.00;5155599;27;20041;-54
2022/04/17 00:23:58;;;;;;;20.35;12.02;;;;;;;6.16;50.75;102905.41;5156365;27;20030;-55
2022/04/17 00:26:23;;;;;;;22.02;12.50;;;;;;;6.15;50.33;102902.88;5156106;27;20495;-54
2022/04/17 00:28:48;;;;;;;21.08;12.27;;;;;;;6.12;50.18;102906.09;5156245;27;20071;-54
2022/04/17 00:31:13;;;;;;;22.15;12.25;;;;;;;6.09;50.24;102910.13;5155983;27;20034;-55
2022/04/17 00:33:39;;;;;;;20.95;12.02;;;;;;;6.07;50.52;102904.84;5156036;27;20356;-54
2022/04/17 00:36:04;;;;;;;22.08;12.43;;;;;;;6.06;50.16;102900.41;5155939;27;20097;-55
2022/04/17 00:38:29;;;;;;;22.05;12.02;;;;;;;6.07;50.45;102906.78;5137433;27;20100;-55
2022/04/17 00:40:54;;;;;;;22.75;12.70;;;;;;;6.08;49.60;102905.72;5155835;27;20324;-54
2022/04/17 00:43:29;;;;;;;22.48;11.57;;;;;;;6.06;49.34;102896.84;5155771;27;20018;-55
2022/04/17 00:45:54;;;;;;;22.75;11.68;;;;;;;6.06;49.31;102900.41;5156113;27;20102;-54
2022/04/17 00:48:20;;;;;;;22.05;11.90;;;;;;;6.07;49.46;102901.28;5155826;27;20080;-54
2022/04/17 00:50:46;;;;;;;20.33;11.15;;;;;;;6.05;49.83;102895.16;5155628;27;20072;-54
2022/04/17 00:53:12;;;;;;;20.98;11.88;;;;;;;6.03;49.79;102897.28;5155634;27;20093;-54
2022/04/17 00:55:39;;;;;;;21.40;11.65;;;;;;;6.00;49.11;102898.56;5155617;27;20106;-54
2022/04/17 00:58:04;;;;;;;21.30;11.38;;;;;;;6.01;49.06;102892.03;5155706;27;20030;-54
2022/04/17 01:00:32;;;;;;;21.13;12.15;;;;;;;6.02;49.31;102901.09;5155454;27;20483;-54
2022/04/17 01:02:58;;;;;;;21.98;12.38;;;;;;;6.00;48.30;102893.09;5155443;27;20102;-55
2022/04/17 01:05:23;;;;;;;21.92;11.30;;;;;;;5.98;49.07;102888.84;5155312;27;20046;-55
2022/04/17 01:07:49;;;;;;;21.38;11.68;;;;;;;5.98;49.04;102895.16;5155323;27;20450;-55
2022/04/17 01:10:15;;;;;;;20.75;11.05;;;;;;;5.96;48.67;102897.28;5155380;27;20071;-55
2022/04/17 01:12:40;;;;;;;21.80;11.13;;;;;;;5.93;48.74;102900.50;5155080;27;20062;-56
2022/04/17 01:15:06;;;;;;;21.73;11.38;;;;;;;5.88;48.86;102901.19;5155609;27;20082;-54
2022/04/17 01:17:32;;;;;;;21.00;11.93;;;;;;;5.85;48.41;102895.31;5155166;27;20018;-55
2022/04/17 01:19:57;;;;;;;20.10;10.90;;;;;;;5.81;48.94;102900.38;5155176;27;20037;-54
2022/04/17 01:22:25;;;;;;;19.95;11.10;;;;;;;5.74;48.73;102903.19;5155147;27;20479;-54
2022/04/17 01:27:34;;;;;;;20.85;11.43;;;;;;;5.62;49.22;102894.81;5154986;27;20045;-54
2022/04/17 01:30:00;;;;;;;20.83;10.75;;;;;;;5.58;49.98;102903.72;5155177;27;20029;-55
2022/04/17 01:32:25;;;;;;;21.02;11.43;;;;;;;5.56;50.10;102906.69;5154804;27;20026;-55
2022/04/17 01:34:50;;;;;;;20.23;11.05;;;;;;;5.50;50.14;102895.75;5154342;27;20142;-54
2022/04/17 01:37:17;;;;;;;20.65;10.95;;;;;;;5.42;50.29;102900.44;5154021;27;20046;-54
2022/04/17 01:39:43;;;;;;;19.02;10.73;;;;;;;5.33;50.66;102895.44;5154746;27;20398;-54
2022/04/17 01:42:09;;;;;;;21.00;11.00;;;;;;;5.22;50.49;102894.22;5154517;27;20022;-56
2022/04/17 01:44:34;;;;;;;20.38;10.80;;;;;;;5.16;50.35;102904.19;5154827;27;20037;-56
2022/04/17 01:47:01;;;;;;;21.70;10.88;;;;;;;5.10;51.24;102900.41;5154783;27;20022;-55
2022/04/17 01:49:27;;;;;;;19.98;10.40;;;;;;;5.02;52.35;102897.09;5154735;27;20046;-54
2022/04/17 01:51:53;;;;;;;21.17;10.25;;;;;;;4.95;52.21;102897.97;5154427;27;20467;-55
2022/04/17 01:54:20;;;;;;;20.38;10.98;;;;;;;4.87;53.65;102898.19;5154411;27;20073;-53
2022/04/17 01:56:49;;;;;;;20.20;10.20;;;;;;;4.82;53.29;102892.53;5154700;27;20170;-53
2022/04/17 01:59:18;;;;;;;20.40;10.38;;;;;;;4.76;53.88;102893.41;5154336;27;20102;-55
2022/04/17 02:01:44;;;;;;;20.10;10.25;;;;;;;4.74;53.32;102892.75;5154282;27;20079;-55
2022/04/17 02:04:10;;;;;;;20.67;10.45;;;;;;;4.72;53.25;102887.50;5154368;27;20027;-56
2022/04/17 02:06:39;;;;;;;19.85;10.43;;;;;;;4.71;52.87;102883.06;5154255;27;20493;-54
2022/04/17 02:09:07;;;;;;;18.75;10.00;;;;;;;4.69;52.79;102885.19;5154560;27;20122;-55
2022/04/17 02:11:33;;;;;;;21.17;10.40;;;;;;;4.68;53.04;102880.75;5154514;27;20027;-54
2022/04/17 02:14:00;;;;;;;21.40;10.18;;;;;;;4.66;53.39;102880.13;5154280;27;20101;-55
2022/04/17 02:16:26;;;;;;;20.33;9.93;;;;;;;4.61;55.00;102883.50;5154759;27;20054;-54
2022/04/17 02:18:53;;;;;;;20.88;10.52;;;;;;;4.55;54.15;102884.38;5154348;27;20072;-54
2022/04/17 02:21:21;;;;;;;19.38;9.90;;;;;;;4.46;54.99;102880.19;5154020;27;20027;-54
2022/04/17 02:23:47;;;;;;;20.33;9.73;;;;;;;4.49;53.97;102887.97;5154028;27;20474;-56
2022/04/17 02:26:16;;;;;;;21.40;10.43;;;;;;;4.41;54.67;102875.34;5154253;27;20456;-55
2022/04/17 02:28:42;;;;;;;19.92;9.75;;;;;;;4.41;54.76;102879.97;5154411;27;20022;-55
2022/04/17 02:31:09;;;;;;;20.27;10.15;;;;;;;4.39;54.46;102884.84;5154119;27;20415;-54
2022/04/17 02:33:35;;;;;;;22.00;11.10;;;;;;;4.32;55.65;102882.13;5154307;27;20023;-53
2022/04/17 02:36:00;;;;;;;20.38;9.80;;;;;;;4.26;55.01;102870.13;5154026;27;20087;-55
2022/04/17 02:38:26;;;;;;;21.63;10.02;;;;;;;4.22;55.56;102875.19;5154011;27;20023;-55
2022/04/17 02:40:54;;;;;;;20.70;10.05;;;;;;;4.10;56.58;102865.91;5153964;27;20051;-55
2022/04/17 02:43:19;;;;;;;19.88;10.18;;;;;;;4.16;55.49;102872.44;5154499;27;20535;-55
2022/04/17 02:45:45;;;;;;;19.00;9.88;;;;;;;4.09;55.29;102869.72;5158160;27;20038;-54
2022/04/17 02:48:10;;;;;;;20.38;10.45;;;;;;;4.09;55.37;102875.19;5158196;27;20454;-54
2022/04/17 02:50:36;;;;;;;20.52;10.52;;;;;;;4.02;56.54;102866.97;5158025;27;20065;-54
2022/04/17 02:53:01;;;;;;;20.63;10.52;;;;;;;3.98;56.44;102871.22;5158019;27;20026;-55
2022/04/17 02:55:26;;;;;;;20.85;10.13;;;;;;;3.94;55.87;102863.63;5157945;27;20038;-54
2022/04/17 02:57:52;;;;;;;20.95;10.63;;;;;;;3.89;57.06;102867.00;5139438;27;20058;-55
2022/04/17 03:00:17;;;;;;;20.42;10.38;;;;;;;3.86;56.60;102872.88;5157755;27;20085;-54
2022/04/17 03:05:39;;;;;;;20.85;10.25;;;;;;;3.75;56.91;102869.72;5158165;27;20042;-54
2022/04/17 03:08:15;;;;;;;21.05;10.20;;;;;;;3.65;57.39;102868.47;5157693;27;20034;-54
2022/04/17 03:10:42;;;;;;;22.10;10.70;;;;;;;3.60;58.54;102869.09;5157778;27;20054;-54
2022/04/17 03:13:08;;;;;;;19.40;10.43;;;;;;;3.56;58.72;102868.69;5157776;27;20046;-55
2022/04/17 03:15:37;;;;;;;20.05;10.07;;;;;;;3.53;59.12;102868.25;5157616;27;20049;-54
2022/04/17 03:18:03;;;;;;;21.25;11.00;;;;;;;3.48;59.82;102868.88;5157635;27;20427;-54
2022/04/17 03:20:28;;;;;;;19.95;10.30;;;;;;;3.42;60.64;102869.69;5139175;27;20459;-54
2022/04/17 03:22:55;;;;;;;20.58;10.70;;;;;;;3.37;59.91;102858.53;5157616;27;20030;-54
2022/04/17 03:25:20;;;;;;;21.25;10.55;;;;;;;3.32;60.66;102863.78;5157172;27;20053;-54
2022/04/17 03:27:46;;;;;;;20.05;10.50;;;;;;;3.27;61.40;102856.19;5157362;27;20015;-53
2022/04/17 03:30:16;;;;;;;19.88;10.25;;;;;;;3.24;61.26;102860.19;5157430;27;20022;-54
2022/04/17 03:32:43;;;;;;;20.73;10.63;;;;;;;3.19;60.75;102846.31;5157428;27;20011;-55
2022/04/17 03:35:10;;;;;;;21.65;10.52;;;;;;;3.18;60.46;102852.81;5157271;27;20050;-55
2022/04/17 03:37:35;;;;;;;19.92;10.43;;;;;;;3.12;61.26;102850.91;5157133;27;20479;-55
2022/04/17 03:40:01;;;;;;;21.15;10.77;;;;;;;3.06;61.60;102849.00;5157157;27;20114;-55
2022/04/17 03:42:26;;;;;;;20.95;10.77;;;;;;;3.06;61.29;102851.72;5156952;27;20031;-57
2022/04/17 03:44:51;;;;;;;20.15;10.70;;;;;;;3.03;61.13;102853.00;5156914;27;20446;-55
2022/04/17 03:47:16;;;;;;;23.50;10.38;;;;;;;3.03;60.76;102850.25;5157408;27;20019;-55
2022/04/17 03:49:43;;;;;;;20.70;9.88;;;;;;;3.02;60.80;102843.09;5157036;27;20026;-53
2022/04/17 03:52:08;;;;;;;19.70;10.50;;;;;;;3.02;60.24;102839.53;5157012;27;20034;-55
2022/04/17 03:54:33;;;;;;;20.63;10.45;;;;;;;3.00;60.45;102845.19;5156363;27;20029;-55
2022/04/17 03:56:59;;;;;;;20.63;11.10;;;;;;;2.97;61.91;102840.97;5156032;27;20022;-55
2022/04/17 03:59:24;;;;;;;21.98;11.25;;;;;;;2.90;60.71;102840.13;5156691;27;20023;-55
2022/04/17 04:01:49;;;;;;;19.70;10.57;;;;;;;2.88;60.95;102849.59;5156728;27;20035;-55
2022/04/17 04:04:15;;;;;;;20.40;11.00;;;;;;;2.84;61.37;102851.88;5138066;27;20457;-55
2022/04/17 04:06:43;;;;;;;21.83;11.48;;;;;;;2.81;62.49;102844.91;5156774;27;20018;-55
2022/04/17 04:09:09;;;;;;;20.88;11.23;;;;;;;2.77;62.76;102840.06;5156552;27;20086;-55
2022/04/17 04:11:34;;;;;;;21.15;10.80;;;;;;;2.73;62.00;102836.06;5156294;27;20111;-56
2022/04/17 04:13:59;;;;;;;21.38;10.85;;;;;;;2.72;62.62;102827.00;5157032;27;20030;-55
2022/04/17 04:16:25;;;;;;;19.88;10.90;;;;;;;2.70;62.21;102826.38;5156311;27;20417;-54
2022/04/17 04:18:50;;;;;;;20.67;10.75;;;;;;;2.69;62.43;102824.72;5156445;27;20026;-55
2022/04/17 04:21:15;;;;;;;20.83;10.88;;;;;;;2.68;62.33;102824.91;5156233;27;20423;-58
2022/04/17 04:23:41;;;;;;;20.42;11.00;;;;;;;2.65;62.38;102824.25;5156428;27;20034;-55
2022/04/17 04:26:07;;;;;;;20.40;10.50;;;;;;;2.64;62.31;102828.06;5155850;27;20054;-54
2022/04/17 04:28:33;;;;;;;20.80;10.90;;;;;;;2.65;62.25;102815.22;5156062;27;20117;-54
2022/04/17 04:31:03;;;;;;;21.27;10.48;;;;;;;2.67;62.46;102815.88;5137183;27;20058;-54
2022/04/17 04:33:31;;;;;;;20.27;10.48;;;;;;;2.66;62.21;102800.50;5156091;27;20079;-55
2022/04/17 04:35:58;;;;;;;21.27;10.75;;;;;;;2.65;62.18;102813.31;5155886;27;20026;-55
2022/04/17 04:38:23;;;;;;;20.08;10.52;;;;;;;2.63;61.79;102809.97;5155775;27;20060;-55
2022/04/17 04:40:49;;;;;;;19.75;10.65;;;;;;;2.62;63.16;102815.63;5155645;27;20115;-56
2022/04/17 04:43:14;;;;;;;19.45;10.07;;;;;;;2.62;62.93;102802.81;5155605;27;20037;-55
2022/04/17 04:51:07;;;;;;;20.92;10.57;;;;;;;2.60;63.26;102817.72;5155930;27;20050;-55
2022/04/17 04:53:32;;;;;;;21.88;10.95;;;;;;;2.57;62.85;102807.19;5155456;27;20387;-55
2022/04/17 04:55:58;;;;;;;20.60;11.10;;;;;;;2.57;62.98;102808.03;5155459;27;20045;-55
2022/04/17 04:58:23;;;;;;;21.77;11.02;;;;;;;2.57;63.88;102805.31;5155710;27;20383;-55
2022/04/17 05:00:48;;;;;;;20.23;10.85;;;;;;;2.57;63.39;102802.56;5155342;27;20034;-55
2022/04/17 05:03:13;;;;;;;20.95;10.60;;;;;;;2.58;63.36;102811.63;5155347;27;20019;-55
2022/04/17 05:05:39;;;;;;;21.85;10.95;;;;;;;2.60;63.29;102804.91;5155217;27;20029;-55
2022/04/17 05:08:04;;;;;;;19.95;10.52;;;;;;;2.61;64.27;102813.94;5154780;27;20089;-55
2022/04/17 05:10:30;;;;;;;21.80;11.38;;;;;;;2.61;64.10;102803.00;5136467;27;20071;-55
2022/04/17 05:12:55;;;;;;;19.52;10.65;;;;;;;2.64;63.76;102811.66;5155311;27;20027;-55
2022/04/17 05:15:21;;;;;;;19.88;10.85;;;;;;;2.69;63.79;102811.03;5155035;27;20034;-55
2022/04/17 05:17:47;;;;;;;20.98;10.77;;;;;;;2.73;63.91;102808.75;5155177;27;20031;-54
2022/04/17 05:20:15;;;;;;;21.08;10.85;;;;;;;2.75;63.68;102815.69;5154919;27;20049;-54
2022/04/17 05:22:40;;;;;;;20.27;10.88;;;;;;;2.80;63.49;102821.38;5154779;27;20146;-54
2022/04/17 05:25:06;;;;;;;20.63;11.02;;;;;;;2.84;63.75;102819.06;5154564;27;20414;-54
2022/04/17 05:27:32;;;;;;;20.55;11.05;;;;;;;2.87;63.53;102815.91;5154972;27;20483;-54
2022/04/17 05:29:57;;;;;;;21.17;11.00;;;;;;;2.92;63.35;102809.84;5154668;27;20474;-53
2022/04/17 05:32:23;;;;;;;21.40;10.70;;;;;;;2.98;63.35;102819.94;5154742;27;20345;-54
2022/04/17 05:34:48;;;;;;;20.33;10.93;;;;;;;3.03;62.83;102819.31;5154055;27;20030;-54
2022/04/17 05:37:13;;;;;;;19.48;10.48;;;;;;;3.07;63.01;102818.69;5153772;27;20658;-55
2022/04/17 05:39:38;;;;;;;20.73;11.43;;;;;;;3.12;63.19;102824.41;5154627;27;20026;-55
2022/04/17 05:42:04;;;;;;;20.77;11.35;;;;;;;3.19;63.19;102820.84;5154550;27;20474;-55
2022/04/17 05:44:29;;;;;;;20.42;11.38;;;;;;;3.25;62.56;102817.28;5154401;27;20022;-56
2022/04/17 05:46:56;;;;;;;21.67;11.25;;;;;;;3.28;62.22;102808.63;5154270;27;20359;-55
2022/04/17 05:49:21;;;;;;;23.25;11.35;;;;;;;3.39;62.88;102812.66;5154584;27;20033;-55
2022/04/17 05:51:47;;;;;;;21.30;11.32;;;;;;;3.50;62.58;102805.72;5154305;27;20019;-55
2022/04/17 05:54:12;;;;;;;20.83;11.23;;;;;;;3.57;61.82;102812.03;5154122;27;20071;-54
2022/04/17 05:56:38;;;;;;;20.15;11.18;;;;;;;3.68;61.49;102813.31;5153910;27;20037;-55
2022/04/17 05:59:05;;;;;;;20.77;11.20;;;;;;;3.71;61.74;102800.03;5154430;27;20030;-55
2022/04/17 06:01:30;;;;;;;19.60;10.68;;;;;;;3.86;61.65;102802.56;5154261;27;20026;-55
2022/04/17 06:03:55;;;;;;;20.15;10.45;;;;;;;3.94;62.11;102812.44;5154273;27;20067;-55
2022/04/17 06:06:21;;;;;;;22.02;10.90;;;;;;;4.05;61.42;102820.00;5154205;27;20344;-55
2022/04/17 06:08:47;;;;;;;20.05;10.63;;;;;;;4.17;61.13;102819.34;5154508;27;20038;-55
2022/04/17 06:11:13;;;;;;;20.38;10.38;;;;;;;4.27;60.72;102813.41;5154541;27;20034;-56
2022/04/17 06:13:38;;;;;;;19.70;10.50;;;;;;;4.37;60.11;102811.06;5154247;27;20026;-54
2022/04/17 06:16:04;;;;;;;20.67;10.30;;;;;;;4.49;60.89;102813.97;5154432;27;20019;-54
2022/04/17 06:18:29;;;;;;;19.88;10.13;;;;;;;4.60;59.70;102818.78;5153335;27;20027;-54
2022/04/17 06:20:55;;;;;;;21.00;10.00;;;;;;;4.69;59.24;102808.41;5153267;27;20027;-54
2022/04/17 06:23:20;;;;;;;20.00;10.27;;;;;;;4.80;59.04;102813.22;5154239;27;20444;-55
2022/04/17 06:25:45;;;;;;;20.27;10.20;;;;;;;4.90;58.99;102807.25;5153763;27;20057;-54
2022/04/17 06:28:11;;;;;;;20.00;10.40;;;;;;;4.96;58.99;102800.88;5154026;27;20467;-55
2022/04/17 06:30:36;;;;;;;21.02;10.57;;;;;;;5.08;59.13;102814.75;5153953;27;20106;-55
2022/04/17 06:33:02;;;;;;;19.73;10.18;;;;;;;5.15;58.43;102809.19;5135290;27;20026;-54
2022/04/17 06:35:27;;;;;;;20.40;10.02;;;;;;;5.27;58.91;102803.88;5153910;27;20079;-54
2022/04/17 06:38:02;;;;;;;18.73;9.85;;;;;;;5.35;58.14;102800.00;5135451;27;20458;-54
2022/04/17 06:40:32;;;;;;;19.92;10.20;;;;;;;5.47;57.88;102792.72;5153423;27;20026;-54
2022/04/17 06:43:01;;;;;;;19.40;10.68;;;;;;;5.54;57.01;102793.50;5153486;27;20015;-54
2022/04/17 06:45:26;;;;;;;18.75;9.95;;;;;;;5.67;56.78;102795.28;5153687;27;20019;-54
2022/04/17 06:47:52;;;;;;;19.27;9.77;;;;;;;5.77;57.23;102789.28;5135264;27;20114;-54
2022/04/17 06:50:22;;;;;;;19.77;10.43;;;;;;;5.89;57.74;102790.25;5153755;27;20075;-54
2022/04/17 06:52:47;;;;;;;19.33;9.57;;;;;;;6.01;57.35;102787.59;5153910;27;20037;-56
2022/04/17 06:55:13;;;;;;;18.55;10.05;;;;;;;6.11;56.81;102798.06;5153754;27;20026;-54
2022/04/17 06:57:45;;;;;;;19.83;10.30;;;;;;;6.21;56.21;102803.88;5153913;27;20100;-55
2022/04/17 07:00:11;;;;;;;18.00;9.77;;;;;;;6.33;56.53;102790.19;5153772;27;20027;-53
2022/04/17 07:02:37;;;;;;;20.13;9.93;;;;;;;6.40;55.60;102793.72;5153510;27;20027;-54
2022/04/17 07:05:03;;;;;;;19.75;10.02;;;;;;;6.52;56.63;102796.53;5153923;27;20023;-54
2022/04/17 07:07:28;;;;;;;20.00;10.27;;;;;;;6.63;55.81;102794.91;5153877;27;20023;-55
2022/04/17 07:09:54;;;;;;;20.30;9.80;;;;;;;6.75;55.02;102794.13;5153779;27;20023;-55
2022/04/17 07:12:20;;;;;;;18.88;9.75;;;;;;;6.90;55.61;102796.47;5135349;27;20015;-55
2022/04/17 07:14:47;;;;;;;20.02;9.80;;;;;;;7.00;53.84;102785.75;5153859;27;20072;-55
2022/04/17 07:17:13;;;;;;;19.45;9.50;;;;;;;7.07;54.94;102788.41;5153496;27;20452;-55
2022/04/17 07:19:38;;;;;;;18.80;9.75;;;;;;;7.17;53.63;102785.94;5153547;27;20133;-55
2022/04/17 07:22:03;;;;;;;19.05;9.65;;;;;;;7.27;53.49;102780.69;5152991;27;20023;-55
2022/04/17 07:24:29;;;;;;;17.70;9.50;;;;;;;7.40;53.83;102779.63;5153013;27;20105;-55
2022/04/17 07:26:56;;;;;;;17.75;9.10;;;;;;;7.52;53.54;102771.38;5153454;27;20019;-55
2022/04/17 07:29:22;;;;;;;16.95;9.10;;;;;;;7.62;52.82;102770.75;5153933;27;20068;-56
2022/04/17 07:31:51;;;;;;;19.58;9.90;;;;;;;7.73;51.85;102771.88;5157100;27;20079;-56
2022/04/17 07:34:20;;;;;;;19.95;9.88;;;;;;;7.79;52.03;102768.97;5157245;27;20075;-54
2022/04/17 07:36:52;;;;;;;16.48;9.07;;;;;;;7.94;53.17;102770.41;5157069;27;20053;-54
2022/04/17 07:39:18;;;;;;;16.42;9.02;;;;;;;8.11;50.82;102768.59;5157026;27;20117;-57
2022/04/17 07:41:46;;;;;;;17.27;9.30;;;;;;;8.26;50.08;102770.03;5156777;27;20428;-58
2022/04/17 07:44:12;;;;;;;17.75;9.00;;;;;;;8.40;49.63;102765.06;5138581;27;20107;-55
2022/04/17 07:46:39;;;;;;;18.02;8.98;;;;;;;8.51;49.89;102769.72;5156891;27;20054;-56
2022/04/17 07:49:04;;;;;;;18.83;10.10;;;;;;;8.64;50.14;102759.50;5156824;27;20386;-55
2022/04/17 07:51:29;;;;;;;18.15;9.45;;;;;;;8.74;50.59;102760.50;5156954;27;20023;-56
2022/04/17 07:53:55;;;;;;;18.08;9.57;;;;;;;8.82;49.80;102755.72;5156837;27;20018;-55
2022/04/17 07:56:20;;;;;;;17.63;9.43;;;;;;;8.87;48.86;102755.78;5156569;27;20474;-56
2022/04/17 07:58:46;;;;;;;18.60;9.80;;;;;;;8.94;48.74;102764.75;5138242;27;20058;-56
2022/04/17 08:01:11;;;;;;;21.40;10.27;;;;;;;8.96;49.02;102751.53;5156628;27;20025;-56
2022/04/17 08:06:06;;;;;;;18.63;9.88;;;;;;;9.10;48.84;102754.81;5156446;27;20046;-56
2022/04/17 08:08:35;;;;;;;18.42;9.18;;;;;;;9.17;47.87;102754.66;5156483;27;20083;-55
2022/04/17 08:11:00;;;;;;;18.33;9.20;;;;;;;9.21;47.64;102748.38;5137893;27;20466;-56
2022/04/17 08:13:26;;;;;;;18.80;9.00;;;;;;;9.26;48.17;102750.41;5156474;27;20022;-56
2022/04/17 08:15:51;;;;;;;17.70;8.95;;;;;;;9.39;47.98;102743.69;5156608;27;20033;-54
2022/04/17 08:18:16;;;;;;;16.83;8.95;;;;;;;9.48;46.88;102747.72;5156179;27;20471;-55
2022/04/17 08:20:43;;;;;;;16.83;8.93;;;;;;;9.59;46.59;102740.41;5156196;27;20027;-56
2022/04/17 08:23:08;;;;;;;15.57;8.73;;;;;;;9.67;46.61;102736.38;5156605;27;20049;-54
2022/04/17 08:25:33;;;;;;;17.23;8.77;;;;;;;9.76;46.68;102742.34;5155949;27;20050;-55
2022/04/17 08:27:59;;;;;;;18.25;8.82;;;;;;;9.84;47.31;102747.44;5155994;27;20102;-55
2022/04/17 08:30:26;;;;;;;17.90;9.38;;;;;;;9.90;45.69;102746.41;5137413;27;20030;-56
2022/04/17 08:32:51;;;;;;;17.20;9.10;;;;;;;9.96;46.39;102739.88;5155932;27;20091;-56
2022/04/17 08:35:17;;;;;;;16.55;8.70;;;;;;;10.08;46.57;102742.50;5156013;27;20026;-56
2022/04/17 08:37:46;;;;;;;18.60;8.63;;;;;;;10.21;45.11;102732.13;5155819;27;20034;-56
2022/04/17 08:40:12;;;;;;;18.10;8.80;;;;;;;10.34;44.89;102728.16;5155940;27;20085;-56
2022/04/17 08:42:39;;;;;;;18.20;8.80;;;;;;;10.42;43.92;102734.09;5154702;27;20019;-56
2022/04/17 08:45:05;;;;;;;17.17;9.13;;;;;;;10.53;44.70;102736.97;5155931;27;20064;-56
2022/04/17 08:47:32;;;;;;;17.33;8.98;;;;;;;10.63;43.55;102730.75;5155852;27;20030;-56
2022/04/17 08:49:57;;;;;;;16.50;9.00;;;;;;;10.71;44.23;102733.88;5137071;27;20031;-56
2022/04/17 08:52:23;;;;;;;15.55;8.43;;;;;;;10.87;43.09;102731.25;5155526;27;20091;-56
2022/04/17 08:54:50;;;;;;;17.98;8.93;;;;;;;11.01;43.30;102726.97;5155542;27;20034;-56
2022/04/17 08:57:20;;;;;;;17.02;8.98;;;;;;;11.11;42.18;102728.16;5155326;27;20031;-55
2022/04/17 08:59:45;;;;;;;15.45;8.45;;;;;;;11.25;42.81;102740.44;5156172;27;20035;-56
2022/04/17 09:02:11;;;;;;;17.20;9.02;;;;;;;11.41;41.63;102724.78;5155268;27;20027;-55
2022/04/17 09:04:43;;;;;;;16.25;8.70;;;;;;;11.47;40.66;102725.66;5155284;27;20398;-56
2022/04/17 09:07:10;;;;;;;17.08;8.50;;;;;;;11.57;42.24;102722.97;5155273;27;20490;-57
2022/04/17 09:09:52;;;;;;;17.92;9.18;;;;;;;11.73;43.01;102720.28;5155313;27;20026;-54
2022/04/17 09:12:26;;;;;;;16.00;8.20;;;;;;;11.78;40.15;102717.53;5155290;27;20134;-55
2022/04/17 09:14:55;;;;;;;17.80;8.52;;;;;;;11.79;39.74;102716.44;5155340;27;20038;-55
2022/04/17 09:17:31;;;;;;;16.25;8.20;;;;;;;11.89;40.87;102715.66;5155214;27;20026;-58
2022/04/17 09:19:57;;;;;;;16.48;8.00;;;;;;;12.00;40.24;102718.22;5155053;27;20031;-57
2022/04/17 09:22:22;;;;;;;18.30;8.65;;;;;;;12.08;39.98;102716.88;5154369;27;20031;-57
2022/04/17 09:24:47;;;;;;;19.15;9.23;;;;;;;12.19;40.94;102714.16;5154603;27;20082;-56
2022/04/17 09:27:13;;;;;;;17.95;8.40;;;;;;;12.31;40.82;102712.00;5155221;27;20042;-56
2022/04/17 09:29:39;;;;;;;16.08;8.05;;;;;;;12.36;39.28;102706.44;5136256;27;20023;-54
2022/04/17 09:32:08;;;;;;;15.55;7.90;;;;;;;12.45;38.64;102704.81;5154995;27;20019;-55
2022/04/17 09:34:47;;;;;;;16.15;8.02;;;;;;;12.49;39.06;102699.53;5154785;27;20031;-55
2022/04/17 09:37:20;;;;;;;15.23;7.88;;;;;;;12.54;39.17;102685.69;5154627;27;20532;-55
2022/04/17 09:39:46;;;;;;;;;;;;;;;12.61;40.67;102691.81;5155316;27;20073;-53
2022/04/17 09:42:12;;;;;;;16.48;8.02;;;;;;;12.67;38.92;102687.09;5154396;27;20343;-55
2022/04/17 09:44:46;;;;;;;16.88;8.05;;;;;;;12.79;39.53;102684.06;5154758;27;20026;-54
2022/04/17 09:47:22;;;;;;;17.08;8.57;;;;;;;12.80;38.35;102683.75;5154789;27;20030;-55
2022/04/17 09:49:56;;;;;;;17.52;8.25;;;;;;;12.91;39.37;102678.22;5154491;27;20027;-55
2022/04/17 09:52:22;;;;;;;;;;;;;;;13.03;41.06;102677.97;5154691;27;20038;-57
2022/04/17 09:54:49;;;;;;;16.63;8.25;;;;;;;13.13;38.08;102675.16;5153947;27;19907;-55
2022/04/17 09:57:33;;;;;;;16.23;8.00;;;;;;;13.11;37.36;102669.88;5154608;27;20072;-55
2022/04/17 10:00:19;;;;;;;16.67;8.13;;;;;;;13.20;39.42;102658.19;5154632;27;20050;-55
2022/04/17 10:02:46;;;;;;;16.30;7.90;;;;;;;13.31;37.39;102648.75;5135366;27;20030;-56
2022/04/17 10:05:16;;;;;;;13.70;7.53;;;;;;;13.39;36.43;102653.75;5154410;27;20082;-56
2022/04/17 10:07:43;;;;;;;16.83;7.60;;;;;;;13.56;37.31;102638.69;5154503;27;20079;-56
2022/04/17 10:10:11;;;;;;;16.58;7.78;;;;;;;13.68;37.16;102632.84;5154180;27;20037;-56
2022/04/17 10:12:39;;;;;;;16.20;7.88;;;;;;;13.79;36.47;102626.09;5154411;27;20026;-56
2022/04/17 10:15:06;;;;;;;15.70;7.53;;;;;;;13.88;34.67;102631.91;5154245;27;20023;-56
2022/04/17 10:17:36;;;;;;;15.88;8.23;;;;;;;13.93;35.60;102623.56;5154344;27;20026;-56
2022/04/17 10:20:06;;;;;;;16.00;8.50;;;;;;;13.87;35.21;102610.78;5154345;27;20494;-56
2022/04/17 10:22:34;;;;;;;15.60;8.00;;;;;;;14.02;36.60;102621.00;5154175;27;20069;-56
2022/04/17 10:24:59;;;;;;;15.35;7.50;;;;;;;14.03;35.27;102606.78;5154004;27;20039;-56
2022/04/17 10:27:30;;;;;;;15.32;7.78;;;;;;;14.13;35.78;102596.72;5153898;27;20031;-55
2022/04/17 10:30:12;;;;;;;17.75;7.90;;;;;;;14.31;35.78;102607.16;5135512;27;20392;-56
2022/04/17 10:33:04;;;;;;;14.20;7.82;;;;;;;14.41;35.27;102608.22;5154282;27;20027;-56
2022/04/17 10:36:03;;;;;;;16.80;8.60;;;;;;;14.47;36.67;102593.97;5154298;27;20023;-56
2022/04/17 10:38:44;;;;;;;16.98;7.72;;;;;;;14.48;36.31;102590.06;5154054;27;20435;-57
2022/04/17 10:41:12;;;;;;;14.95;7.38;;;;;;;14.60;34.38;102586.09;5153995;27;20023;-55
2022/04/17 10:43:47;;;;;;;16.00;7.57;;;;;;;14.79;35.13;102575.94;5154200;27;20099;-56
2022/04/17 10:46:17;;;;;;;16.17;7.85;;;;;;;14.98;34.87;102575.19;5154051;27;20115;-55
2022/04/17 10:48:44;;;;;;;18.58;8.05;;;;;;;15.08;33.85;102577.88;5154494;27;20071;-56
2022/04/17 10:51:18;;;;;;;15.65;8.15;;;;;;;15.13;34.61;102572.25;5153799;27;20030;-57
2022/04/17 10:53:54;;;;;;;18.98;8.80;;;;;;;15.06;34.73;102548.66;5154118;27;20022;-55
2022/04/17 10:56:20;;;;;;;16.42;7.90;;;;;;;15.10;33.68;102563.63;5153881;27;20027;-56
2022/04/17 10:58:56;;;;;;;15.98;7.78;;;;;;;15.19;34.11;102564.66;5154008;27;20058;-55
2022/04/17 11:01:44;;;;;;;14.80;7.90;;;;;;;15.24;34.73;102555.41;5153682;27;20023;-55
2022/04/17 11:04:21;;;;;;;15.93;7.63;;;;;;;15.23;32.40;102551.78;5153631;27;20022;-54
2022/04/17 11:06:52;;;;;;;15.80;8.02;;;;;;;15.31;32.41;102543.91;5158111;27;20117;-55
2022/04/17 11:09:23;;;;;;;16.27;8.18;;;;;;;15.43;32.91;102545.13;5157969;27;20027;-56
2022/04/17 11:11:49;;;;;;;18.77;10.45;;;;;;;15.51;33.27;102540.84;5157416;27;20098;-54
2022/04/17 11:14:20;;;;;;;17.50;8.10;;;;;;;15.65;31.19;102534.53;5157615;27;20392;-55
2022/04/17 11:16:56;;;;;;;14.57;7.68;;;;;;;15.75;32.02;102538.03;5157520;27;20446;-55
2022/04/17 11:19:28;;;;;;;15.60;7.93;;;;;;;15.83;31.33;102532.91;5157642;27;20483;-55
2022/04/17 11:21:56;;;;;;;16.23;7.97;;;;;;;15.90;30.24;102530.59;5157214;27;20123;-56
2022/04/17 11:24:22;;;;;;;13.73;7.30;;;;;;;16.05;30.21;102522.00;5157407;27;20019;-55
2022/04/17 11:26:53;;;;;;;15.68;7.53;;;;;;;16.16;30.88;102519.88;5157409;27;20043;-56
2022/04/17 11:29:37;;;;;;;16.17;7.60;;;;;;;16.24;30.30;102526.75;5157224;27;20109;-56
2022/04/17 11:32:23;;;;;;;14.07;7.60;;;;;;;16.21;29.33;102513.38;5157345;27;20042;-55
2022/04/17 11:34:52;;;;;;;16.50;7.90;;;;;;;16.10;29.28;102509.94;5157305;27;20023;-56